Pagrindinis puslapis
METAR-TAF:

METAR-TAF

Oro uostai :

Heidrun, Norvegija

platuma: 65-19-30N, ilguma: 007-19-36E, Aukštis: 0 m

Dabartinis oras

Ataskaita buvo paskelbta 24 minutes, ne 01:50 UTC
Vėjas 2 kt iš Pietryčių su gūsio iki 12 kt
Temperatūra 13°C
Drėgmė 94%
Slėgis 1020 hPa
Matomumas 10 km arba daugiau
Mažai debesys ne aukštis 600 ft

METAR: ENHE 240150Z 13002G12KT 9999 FEW006 13/12 Q1020 W///S4

Laikas: 04:14 (02:14 UTC)

Prognozė

Ataskaita buvo paskelbta 3 valandos ir 14 minutes, ne 23:00 UTC
Prognozė galioja nuo 24 metu 00 UTC su 24 metu 09 UTC
Vėjas 7 kt nuo kintamojo kryptimis
Matomumas 10 km arba daugiau
Mažai debesys ne aukštis 1000 ft
Su prošvaistėmis ne aukštis 3000 ft
Tikimybė 30%
nuo 24 metu 00 UTC su 24 metu 09 UTC
Su prošvaistėmis ne aukštis 1000 ft
Tapsmas
nuo 24 metu 00 UTC su 24 metu 03 UTC
Vėjas 12 kt iš Pietų/Pietryčių

TAF: ENHE 232300Z 2400/2409 VRB07KT 9999 FEW010 BKN030 PROB30 2400/2409 BKN010 BECMG 2400/2403 15012KT

Orai ataskaitas ir orų prognozės (METAR, TAF).

turimą stotys yra geltonos ir raudonos taškus žemėlapyje.

Perkelti pele per norėdami pamatyti stoties vardą.

Tada spustelėkite, norėdami matyti oro stebėjimo ir prognozės.

Norėdami pakeisti žemėlapį: spustelėkite ant žalios mygtukų su juodo kryžiaus žemyn,; žalią mygtuką su brūkšneliu, jei norite nutolinti; arba žalių rodyklių gretimoms žemėlapius.


METAR-TAF: